Andover, OH

7:53 AM EST on February 28, 2015 (GMT -0500)
Ashtabula County | Change Station
CLOSE
Current Station
Airport
Location: Ashtabula,
Elevation: 922 ft
Nearby Weather Stations
Active Advisory: Winter Storm Watch Active Notice: Record Report

Elev 922 ft 41.78 °N, 80.70 °W | Updated 1 hour ago

Partly Cloudy
Partly Cloudy
-7 °F
Feels Like -16 °F
N
4
Wind Variable Wind from SSE

Today
High -- | Low -- °F
--% Chance of Precip.
Yesterday
High -- | Low -- °F
Precip. -- in
6:58 AM 6:11 PM
Waxing Gibbous, 77% visible
Pressure 30.82 in
Visibility 10.0 miles
Clouds Clear
Windchill -16 °F
Dew Point -13 °F
Humidity 75%
Rainfall 0.00 in
Snow Depth Not available.
UV 0 out of 12
Pollen .40 out of 12
Air Quality Not available.
Flu Activity Not available.
METAR KHZY 281153Z AUTO 16003KT 10SM CLR M22/M25 A3074 RMK AO2 SLP435 I6000 T12171250 11217 21267 51017

More Conditions Fewer Conditions

Pressure 30.82 in
Visibility 10.0 miles
Clouds Clear
Windchill -16 °F
Dew Point -13 °F
Humidity 75%
Rainfall 0.00 in
Snow Depth Not available.
UV 0 out of 12
Pollen .40 out of 12
Air Quality Not available.
Flu Activity Not available.
METAR KHZY 281153Z AUTO 16003KT 10SM CLR M22/M25 A3074 RMK AO2 SLP435 I6000 T12171250 11217 21267 51017

More Conditions Fewer Conditions

10-Day Weather Forecast

Almanac

Astronomy

Feb. 28, 2015 Rise Set
Actual Time
Civil Twilight
Nautical Twilight
Astronomical Twilight
Moon
Length of Visible Light
Length of Day
Tomorrow will be .
, % of the Moon is Illuminated

Today's Extremes

State Highs State Lows

Community

WunderPhotos

Upload Photos

1,801,000 photos uploaded!

WunderBlogs® & News

Nearby

Air Quality

  Air Quality AQ Index Pollutant
Not available.

Snow Depth

Station Depth Elevation

Earthquake Activity

City Distance Mag. Time & Date
Minimum magnitude displayed is 2.5.

Coastal Water Temperatures

Place Temperature

Nearby Weather Stations

Winter Storm Watch
Statement as of 2:54 AM EST on February 28, 2015

... Winter Storm Watch now in effect from late tonight through
Monday morning...

* snow accumulations... 4 to 8 inches.

* Snow is expected to spread into the area late tonight and then
continue into Sunday night.

* The heaviest snow is expected during the day on Sunday.

* The snow is expected to gradually end from west to east Sunday
night.

* Impacts... snow will be the main threat during this event.
Hazardous travel conditions are expected due to reduced
visibility from the snow and snow accumulation.

Precautionary/preparedness actions...

A Winter Storm Watch means that heavy snow is possible. If you
are within the watch area... remain alert to rapidly changing
weather conditions. Stay tuned to the National Weather Service or
the local news media for the latest updates and possible
warnings.